Thunder radar more information blitzortung!


Radar de pluja more information rain snow radar


Visita la nostra xarxa de llocs de meteo:

Template documentation
and downloads

And another site



No particular awareness of the weather is required.    There are no Weather-warnings

Pagina Historial Weather Underground text

Diari Resum Abril 21, 2016 Unitats:  Mètric    Imperial   Tant
« Previous Dia
SegĂźent Dia »
Diari Setmana Mensual Anual Personalitzada
  Maxima: Minima: Media:
Temperatura: 19.9 °C 10.6 °C 14.2 °C
Punt de rosada: 13.1 °C 5.3 °C 10.7 °C
Humitat: 91 % 52 % 80 %
Wind Speed: 23.3 km/h 0.0 km/h 4.1 km/h
RĂ fegues de vent: 23.3 km/h - -
Vent:- - South
Pression baro: 1022.9 hPa 1018.8 hPa -
Precipitacions: 23.4 mm    
Historical Graphs
 
 
Dades de taula per Abril 21, 2016
Temps Temperatura Punt de rosada Pression baro Vent Wind Speed RĂ fegues de vent Humitat Rainfall Rate (Hourly)
00:02 15.1 °C 5.3 °C 1021.9 hPa East 4.7 km/h 4.7 km/h 52 % 0.0 mm
01:45 10.9 °C 7.2 °C 1019.9 hPa WNW 1.6 km/h 1.6 km/h 78 % 3.0 mm
01:55 10.8 °C 7.1 °C 1019.9 hPa Calm   3.2 km/h 78 % 1.0 mm
02:05 10.8 °C 7.1 °C 1019.9 hPa Calm   1.6 km/h 78 % 0.0 mm
02:15 10.7 °C 7.2 °C 1019.9 hPa NW 3.2 km/h 3.2 km/h 79 % 2.3 mm
02:25 10.7 °C 7.4 °C 1019.9 hPa Calm   1.6 km/h 80 % 3.0 mm
02:35 10.7 °C 7.2 °C 1019.9 hPa Calm     79 % 0.8 mm
02:45 10.6 °C 6.9 °C 1019.9 hPa NNW 1.6 km/h 3.2 km/h 78 % 1.3 mm
02:55 10.6 °C 6.9 °C 1019.9 hPa WSW 1.6 km/h 3.2 km/h 78 % 1.3 mm
03:05 10.7 °C 7.4 °C 1020.9 hPa Calm   3.2 km/h 80 % 1.0 mm
03:15 10.6 °C 7.3 °C 1019.9 hPa WSW 1.6 km/h 3.2 km/h 80 % 3.0 mm
03:25 10.6 °C 7.3 °C 1019.9 hPa WSW 1.6 km/h 3.2 km/h 80 % 2.0 mm
03:35 10.7 °C 7.8 °C 1019.9 hPa Calm     82 % 2.3 mm
03:45 10.7 °C 7.6 °C 1020.9 hPa Calm   1.6 km/h 81 % 3.3 mm
03:55 10.8 °C 7.7 °C 1020.9 hPa Calm   3.2 km/h 81 % 1.0 mm
08:57 10.8 °C 7.8 °C 1020.9 hPa SW 3.7 km/h   82 % 10.7 mm
09:02 10.8 °C 7.7 °C 1020.9 hPa SW 2.3 km/h 2.3 km/h 81 % 11.7 mm
09:07 10.8 °C 7.7 °C 1020.9 hPa SW 2.6 km/h 2.6 km/h 81 % 9.4 mm
09:17 10.8 °C 8.0 °C 1020.9 hPa West 1.9 km/h   83 % 9.7 mm
09:22 10.9 °C 8.1 °C 1020.9 hPa Calm     83 % 9.4 mm
09:37 11.0 °C 8.4 °C 1020.9 hPa ENE 1.9 km/h   84 % 7.4 mm
09:42 11.1 °C 8.5 °C 1020.9 hPa Calm     84 % 6.3 mm
09:47 11.0 °C 8.2 °C 1019.9 hPa ENE 1.9 km/h 1.9 km/h 83 % 5.1 mm
09:52 11.1 °C 8.3 °C 1019.9 hPa Calm     83 % 4.1 mm
09:57 11.1 °C 8.5 °C 1019.9 hPa ENE 1.9 km/h   84 % 4.1 mm
10:02 11.2 °C 8.6 °C 1020.9 hPa Calm     84 % 3.0 mm
10:07 11.2 °C 8.6 °C 1020.9 hPa ENE 2.3 km/h 2.3 km/h 84 % 3.0 mm
10:12 11.2 °C 8.4 °C 1020.9 hPa ENE 3.2 km/h   83 % 3.0 mm
10:17 11.2 °C 8.4 °C 1019.9 hPa SW 1.9 km/h 1.9 km/h 83 % 3.0 mm
10:22 11.3 °C 8.7 °C 1019.9 hPa Calm     84 % 2.0 mm
10:27 11.3 °C 8.7 °C 1019.9 hPa Calm     84 % 2.0 mm
10:32 11.3 °C 8.7 °C 1021.9 hPa SW 1.9 km/h   84 % 2.0 mm
10:37 11.2 °C 8.6 °C 1021.9 hPa NE 3.7 km/h 3.7 km/h 84 % 1.0 mm
10:42 11.2 °C 8.4 °C 1021.9 hPa NE 5.6 km/h 5.6 km/h 83 % 1.0 mm
10:47 11.3 °C 8.7 °C 1020.9 hPa ENE 9.0 km/h 9.0 km/h 84 % 1.0 mm
10:52 11.2 °C 8.6 °C 1020.9 hPa NNE 13.0 km/h 13.0 km/h 84 % 1.0 mm
10:57 11.3 °C 8.9 °C 1020.9 hPa East 7.4 km/h 7.4 km/h 85 % 1.0 mm
11:02 11.3 °C 8.9 °C 1020.9 hPa East 3.7 km/h 3.7 km/h 85 % 1.0 mm
11:07 11.3 °C 8.9 °C 1020.9 hPa SW 4.2 km/h 4.2 km/h 85 % 1.0 mm
11:12 11.3 °C 8.5 °C 1020.9 hPa WNW 3.7 km/h 3.7 km/h 83 % 1.0 mm
11:17 11.4 °C 8.8 °C 1020.9 hPa NNE 1.9 km/h   84 % 1.0 mm
11:22 11.6 °C 9.0 °C 1020.9 hPa SW 3.7 km/h 3.7 km/h 84 % 1.0 mm
11:27 11.5 °C 8.9 °C 1020.9 hPa SW 3.7 km/h 3.7 km/h 84 % 1.0 mm
11:32 11.5 °C 8.7 °C 1021.9 hPa SW 3.7 km/h 3.7 km/h 83 % 1.0 mm
11:37 11.6 °C 9.0 °C 1021.9 hPa WSW 1.9 km/h   84 % 1.0 mm
11:42 11.7 °C 9.3 °C 1021.9 hPa SW 2.3 km/h 2.3 km/h 85 % 1.0 mm
11:47 11.7 °C 9.3 °C 1020.9 hPa East 3.9 km/h 3.9 km/h 85 % 1.0 mm
11:52 11.7 °C 9.4 °C 1020.9 hPa SE 3.7 km/h 3.7 km/h 86 % 1.0 mm
11:57 11.9 °C 9.4 °C 1020.9 hPa WSW 1.9 km/h   85 % 1.0 mm
12:02 12.0 °C 9.7 °C 1020.9 hPa Calm     86 % 1.0 mm
12:07 12.2 °C 9.9 °C 1020.9 hPa Calm     86 % 1.0 mm
12:12 12.2 °C 9.9 °C 1020.9 hPa Calm     86 % 0.0 mm
12:17 12.2 °C 9.9 °C 1020.9 hPa ENE 3.7 km/h 3.7 km/h 86 % 0.0 mm
12:22 12.3 °C 10.0 °C 1020.9 hPa ENE 3.7 km/h 3.7 km/h 86 % 0.0 mm
12:27 12.4 °C 10.1 °C 1020.9 hPa ENE 1.9 km/h   86 % 0.0 mm
12:37 12.7 °C 10.2 °C 1020.9 hPa NNE 3.7 km/h 3.7 km/h 85 % 0.0 mm
12:42 13.1 °C 10.6 °C 1020.9 hPa WNW 1.9 km/h   85 % 0.0 mm
12:47 13.5 °C 11.0 °C 1020.9 hPa East 5.6 km/h 5.6 km/h 85 % 0.0 mm
12:52 13.9 °C 11.2 °C 1020.9 hPa NNE 3.7 km/h 3.7 km/h 84 % 0.0 mm
12:57 13.9 °C 11.1 °C 1020.9 hPa ENE 5.6 km/h 5.6 km/h 83 % 0.0 mm
13:07 14.6 °C 11.6 °C 1020.9 hPa ENE 3.7 km/h 3.7 km/h 82 % 0.0 mm
13:12 15.1 °C 12.1 °C 1020.9 hPa NE 5.6 km/h 5.6 km/h 82 % 0.0 mm
13:22 15.2 °C 11.6 °C 1020.9 hPa NE 3.7 km/h 3.7 km/h 79 % 0.0 mm
13:27 15.4 °C 11.8 °C 1020.9 hPa NE 7.9 km/h 7.9 km/h 79 % 0.0 mm
13:32 15.4 °C 11.8 °C 1020.9 hPa ENE 7.4 km/h 7.4 km/h 79 % 0.0 mm
13:38 15.4 °C 11.6 °C 1020.9 hPa NNE 7.4 km/h 7.4 km/h 78 % 0.0 mm
13:43 15.7 °C 11.7 °C 1020.9 hPa WSW 7.4 km/h 7.4 km/h 77 % 0.0 mm
13:48 16.1 °C 12.1 °C 1020.9 hPa WNW 4.7 km/h 4.7 km/h 77 % 0.0 mm
13:53 16.3 °C 12.1 °C 1020.9 hPa NNE 5.3 km/h 5.3 km/h 76 % 0.0 mm
13:58 16.5 °C 12.3 °C 1020.9 hPa NNE 5.6 km/h 5.6 km/h 76 % 0.0 mm
14:03 16.6 °C 12.2 °C 1019.9 hPa East 5.6 km/h 5.6 km/h 75 % 0.0 mm
14:08 17.1 °C 12.4 °C 1019.9 hPa ENE 3.7 km/h 3.7 km/h 74 % 0.0 mm
14:13 17.3 °C 12.4 °C 1019.9 hPa NW 5.6 km/h 5.6 km/h 73 % 0.0 mm
14:18 17.6 °C 12.5 °C 1019.9 hPa SE 7.4 km/h 7.4 km/h 72 % 0.0 mm
14:23 18.2 °C 13.1 °C 1019.9 hPa North 3.7 km/h 3.7 km/h 72 % 0.0 mm
14:28 18.0 °C 12.7 °C 1019.9 hPa NW 5.6 km/h 5.6 km/h 71 % 0.0 mm
14:38 17.4 °C 11.9 °C 1019.9 hPa SW 7.4 km/h 7.4 km/h 70 % 0.0 mm
14:43 17.8 °C 12.3 °C 1019.9 hPa NW 5.6 km/h 5.6 km/h 70 % 0.0 mm
14:48 17.7 °C 12.2 °C 1020.9 hPa WNW 3.7 km/h 3.7 km/h 70 % 0.0 mm
14:53 18.3 °C 12.3 °C 1020.9 hPa ESE 3.7 km/h 3.7 km/h 68 % 0.0 mm
14:58 18.4 °C 12.2 °C 1020.9 hPa NE 4.7 km/h 4.7 km/h 67 % 0.0 mm
15:03 18.3 °C 12.3 °C 1019.9 hPa NE 5.6 km/h 5.6 km/h 68 % 0.0 mm
15:08 18.1 °C 12.1 °C 1019.9 hPa WNW 3.7 km/h 3.7 km/h 68 % 0.0 mm
15:13 18.4 °C 12.4 °C 1019.9 hPa ENE 9.3 km/h 9.3 km/h 68 % 0.0 mm
15:18 18.7 °C 12.7 °C 1019.9 hPa WSW 3.7 km/h 3.7 km/h 68 % 0.0 mm
15:23 18.8 °C 12.6 °C 1019.9 hPa WSW 5.6 km/h 5.6 km/h 67 % 0.0 mm
15:28 18.9 °C 12.6 °C 1019.9 hPa SSW 5.8 km/h 5.8 km/h 67 % 0.0 mm
15:33 18.3 °C 11.6 °C 1019.9 hPa SW 7.4 km/h 7.4 km/h 65 % 0.0 mm
15:38 18.1 °C 11.9 °C 1019.9 hPa SW 3.7 km/h 3.7 km/h 67 % 0.0 mm
15:43 18.0 °C 12.0 °C 1019.9 hPa WSW 5.6 km/h 5.6 km/h 68 % 0.0 mm
15:53 17.7 °C 11.7 °C 1019.9 hPa SW 7.4 km/h 7.4 km/h 68 % 0.0 mm
15:58 17.6 °C 11.6 °C 1019.9 hPa WSW 7.4 km/h 7.4 km/h 68 % 0.0 mm
16:03 17.6 °C 11.6 °C 1019.9 hPa SW 6.1 km/h 6.1 km/h 68 % 0.0 mm
16:08 17.5 °C 11.7 °C 1019.9 hPa SW 7.4 km/h 7.4 km/h 69 % 0.0 mm
16:13 17.5 °C 11.7 °C 1019.9 hPa WSW 5.6 km/h 5.6 km/h 69 % 0.0 mm
16:18 18.2 °C 11.9 °C 1019.9 hPa SSW 9.3 km/h 9.3 km/h 67 % 0.0 mm
16:23 18.4 °C 12.2 °C 1019.9 hPa West 9.3 km/h 9.3 km/h 67 % 0.0 mm
16:28 18.5 °C 11.8 °C 1019.9 hPa West 11.1 km/h 11.1 km/h 65 % 0.0 mm
16:33 18.6 °C 12.1 °C 1018.8 hPa WSW 4.7 km/h   66 % 0.0 mm
16:38 18.5 °C 12.0 °C 1018.8 hPa West 5.6 km/h 5.6 km/h 66 % 0.0 mm
16:43 19.2 °C 12.2 °C 1018.8 hPa SE 7.4 km/h 7.4 km/h 64 % 0.0 mm
16:48 19.1 °C 11.9 °C 1018.8 hPa SW 7.4 km/h 7.4 km/h 63 % 0.0 mm
16:53 19.0 °C 11.8 °C 1018.8 hPa SW 4.2 km/h   63 % 0.0 mm
16:58 19.3 °C 12.1 °C 1018.8 hPa South 5.6 km/h 5.6 km/h 63 % 0.0 mm
17:03 19.8 °C 12.6 °C 1018.8 hPa South 2.6 km/h 2.6 km/h 63 % 0.0 mm
17:08 19.6 °C 12.1 °C 1018.8 hPa South 3.7 km/h 3.7 km/h 62 % 0.0 mm
17:13 19.7 °C 12.2 °C 1018.8 hPa SW 3.7 km/h 3.7 km/h 62 % 0.0 mm
17:18 19.9 °C 12.2 °C 1018.8 hPa WSW 3.9 km/h 3.9 km/h 61 % 0.0 mm
17:23 19.8 °C 12.1 °C 1018.8 hPa SSW 1.9 km/h   61 % 0.0 mm
17:28 19.6 °C 11.9 °C 1018.8 hPa SSE 5.6 km/h 5.6 km/h 61 % 0.0 mm
17:33 19.4 °C 11.7 °C 1018.8 hPa SW 3.7 km/h 3.7 km/h 61 % 0.0 mm
17:38 19.2 °C 11.5 °C 1018.8 hPa SW 2.6 km/h   61 % 0.0 mm
17:43 18.9 °C 11.7 °C 1018.8 hPa SSW 7.4 km/h 7.4 km/h 63 % 0.0 mm
17:48 18.6 °C 11.4 °C 1018.8 hPa SW 4.2 km/h 4.2 km/h 63 % 0.0 mm
17:53 18.2 °C 11.3 °C 1018.8 hPa SSW 5.6 km/h 5.6 km/h 64 % 0.0 mm
17:58 18.1 °C 11.2 °C 1018.8 hPa SSW 5.6 km/h 5.6 km/h 64 % 0.0 mm
18:08 17.6 °C 10.7 °C 1019.9 hPa SSW 13.0 km/h 13.0 km/h 64 % 0.0 mm
18:13 17.2 °C 11.0 °C 1019.9 hPa SW 9.3 km/h 9.5 km/h 67 % 0.0 mm
18:18 16.7 °C 11.6 °C 1018.8 hPa West 23.3 km/h 23.3 km/h 72 % 0.0 mm
18:23 16.1 °C 12.1 °C 1018.8 hPa SW 16.7 km/h 16.7 km/h 77 % 0.0 mm
18:28 15.5 °C 11.9 °C 1018.8 hPa WSW 11.1 km/h 11.1 km/h 79 % 0.0 mm
18:33 15.0 °C 11.6 °C 1018.8 hPa SW 9.3 km/h 9.3 km/h 80 % 0.0 mm
18:38 14.9 °C 11.5 °C 1018.8 hPa SW 3.7 km/h 3.7 km/h 80 % 0.0 mm
18:43 14.9 °C 11.5 °C 1018.8 hPa SSW 5.6 km/h 5.6 km/h 80 % 0.0 mm
18:48 15.0 °C 11.8 °C 1019.9 hPa SW 9.3 km/h 9.3 km/h 81 % 0.0 mm
18:53 14.9 °C 11.8 °C 1019.9 hPa WSW 6.4 km/h 6.4 km/h 82 % 0.0 mm
18:58 14.9 °C 11.8 °C 1019.9 hPa WSW 5.8 km/h 5.8 km/h 82 % 0.0 mm
19:03 15.0 °C 11.9 °C 1019.9 hPa WSW 5.0 km/h 5.0 km/h 82 % 0.0 mm
19:08 15.5 °C 12.3 °C 1019.9 hPa SW 5.6 km/h 5.6 km/h 81 % 0.0 mm
19:13 15.5 °C 12.1 °C 1019.9 hPa WNW 3.7 km/h 3.7 km/h 80 % 0.0 mm
19:18 15.3 °C 11.9 °C 1019.9 hPa WSW 3.7 km/h 3.9 km/h 80 % 0.0 mm
19:23 15.2 °C 11.8 °C 1019.9 hPa NNE 4.2 km/h 4.2 km/h 80 % 0.0 mm
19:28 15.2 °C 11.6 °C 1019.9 hPa WSW 3.9 km/h 3.9 km/h 79 % 0.0 mm
19:33 15.1 °C 11.7 °C 1019.9 hPa WSW 7.4 km/h 7.4 km/h 80 % 0.0 mm
19:35 12.7 °C 11.1 °C 1021.9 hPa East 1.6 km/h 4.8 km/h 90 % 0.0 mm
19:38 15.0 °C 11.6 °C 1019.9 hPa WSW 3.7 km/h 3.7 km/h 80 % 0.0 mm
19:43 14.9 °C 11.5 °C 1019.9 hPa WSW 2.3 km/h 2.3 km/h 80 % 0.0 mm
19:45 12.6 °C 11.0 °C 1021.9 hPa East 3.2 km/h 4.8 km/h 90 % 0.0 mm
19:48 14.7 °C 11.3 °C 1019.9 hPa West 1.9 km/h   80 % 0.0 mm
19:53 14.7 °C 11.3 °C 1019.9 hPa WSW 3.9 km/h   80 % 0.0 mm
19:55 12.6 °C 11.0 °C 1021.9 hPa East 4.8 km/h 6.4 km/h 90 % 0.0 mm
19:58 14.7 °C 11.3 °C 1019.9 hPa WSW 5.6 km/h 5.6 km/h 80 % 0.0 mm
20:03 14.7 °C 11.3 °C 1019.9 hPa WSW 5.0 km/h 5.0 km/h 80 % 0.0 mm
20:05 12.6 °C 11.0 °C 1021.9 hPa ESE 1.6 km/h 4.8 km/h 90 % 0.0 mm
20:08 14.7 °C 11.4 °C 1019.9 hPa WSW 5.6 km/h 5.6 km/h 81 % 0.0 mm
20:13 14.7 °C 11.4 °C 1019.9 hPa West 3.7 km/h 3.7 km/h 81 % 0.0 mm
20:15 12.6 °C 11.0 °C 1021.9 hPa East 3.2 km/h 3.2 km/h 90 % 0.0 mm
20:18 14.7 °C 11.4 °C 1019.9 hPa WSW 3.7 km/h 3.7 km/h 81 % 0.0 mm
20:23 14.7 °C 11.4 °C 1019.9 hPa WSW 3.7 km/h 3.7 km/h 81 % 0.0 mm
20:25 12.7 °C 11.1 °C 1021.9 hPa East 3.2 km/h 4.8 km/h 90 % 0.0 mm
20:28 14.6 °C 11.6 °C 1019.9 hPa WNW 1.9 km/h   82 % 0.0 mm
20:33 14.5 °C 11.4 °C 1018.8 hPa WNW 3.7 km/h 3.7 km/h 82 % 0.0 mm
20:35 12.7 °C 11.1 °C 1021.9 hPa East 1.6 km/h 3.2 km/h 90 % 0.0 mm
20:43 14.5 °C 11.3 °C 1018.8 hPa WSW 3.7 km/h 3.7 km/h 81 % 0.0 mm
20:45 12.7 °C 11.3 °C 1021.9 hPa Calm   3.2 km/h 91 % 0.0 mm
20:48 14.3 °C 11.3 °C 1019.9 hPa SW 2.6 km/h 2.6 km/h 82 % 0.0 mm
20:53 14.2 °C 11.2 °C 1019.9 hPa SW 3.7 km/h 3.7 km/h 82 % 0.0 mm
20:55 12.7 °C 11.1 °C 1021.9 hPa East 3.2 km/h 4.8 km/h 90 % 0.0 mm
20:58 14.1 °C 11.1 °C 1019.9 hPa WSW 3.7 km/h 3.7 km/h 82 % 0.0 mm
21:03 14.1 °C 11.3 °C 1019.9 hPa West 1.9 km/h 1.9 km/h 83 % 0.0 mm
21:05 12.7 °C 11.1 °C 1021.9 hPa ESE 1.6 km/h 3.2 km/h 90 % 0.0 mm
21:08 14.1 °C 11.3 °C 1019.9 hPa WSW 3.7 km/h 3.7 km/h 83 % 0.0 mm
21:13 14.1 °C 11.3 °C 1019.9 hPa SW 3.9 km/h 3.9 km/h 83 % 0.0 mm
21:15 12.8 °C 11.2 °C 1021.9 hPa ENE 1.6 km/h 3.2 km/h 90 % 0.0 mm
21:18 14.0 °C 11.2 °C 1020.9 hPa WSW 3.9 km/h 3.9 km/h 83 % 0.0 mm
21:23 14.0 °C 11.2 °C 1020.9 hPa WSW 3.7 km/h 3.7 km/h 83 % 0.0 mm
21:25 12.7 °C 11.1 °C 1021.9 hPa Calm     90 % 0.0 mm
21:28 14.0 °C 11.3 °C 1020.9 hPa West 4.7 km/h 4.7 km/h 84 % 0.0 mm
21:33 13.9 °C 11.2 °C 1020.9 hPa WSW 3.7 km/h 3.7 km/h 84 % 0.0 mm
21:35 12.8 °C 11.2 °C 1021.9 hPa NNE 3.2 km/h 3.2 km/h 90 % 0.0 mm
21:38 13.9 °C 11.2 °C 1020.9 hPa SSW 5.6 km/h 5.6 km/h 84 % 0.0 mm
21:43 13.9 °C 11.4 °C 1020.9 hPa SSW 5.6 km/h 5.6 km/h 85 % 0.0 mm
21:45 12.7 °C 11.1 °C 1021.9 hPa Calm   3.2 km/h 90 % 0.0 mm
21:48 13.9 °C 11.6 °C 1020.9 hPa SW 5.6 km/h 5.6 km/h 86 % 0.0 mm
21:53 13.8 °C 11.5 °C 1020.9 hPa WSW 5.6 km/h 5.6 km/h 86 % 0.0 mm
21:55 12.6 °C 11.0 °C 1021.9 hPa Calm   3.2 km/h 90 % 0.0 mm
21:58 13.8 °C 11.7 °C 1020.9 hPa WSW 7.4 km/h 7.4 km/h 87 % 0.0 mm
22:03 13.8 °C 11.8 °C 1020.9 hPa WSW 11.1 km/h 11.1 km/h 88 % 0.0 mm
22:05 12.5 °C 10.9 °C 1021.9 hPa Calm     90 % 0.0 mm
22:08 13.8 °C 11.8 °C 1020.9 hPa SW 7.4 km/h 7.4 km/h 88 % 0.0 mm
22:13 13.7 °C 11.7 °C 1020.9 hPa SW 9.3 km/h 9.3 km/h 88 % 0.0 mm
22:15 12.4 °C 10.8 °C 1022.9 hPa Calm     90 % 0.0 mm
22:18 13.7 °C 11.9 °C 1021.9 hPa West 9.3 km/h 9.3 km/h 89 % 0.0 mm
22:23 13.6 °C 11.8 °C 1021.9 hPa WSW 3.7 km/h 3.7 km/h 89 % 0.0 mm
22:25 12.3 °C 10.7 °C 1022.9 hPa NNE 1.6 km/h 1.6 km/h 90 % 0.0 mm
22:28 13.6 °C 11.7 °C 1021.9 hPa WSW 5.6 km/h 5.6 km/h 88 % 0.0 mm
22:33 13.5 °C 11.6 °C 1021.9 hPa SW 5.0 km/h 5.0 km/h 88 % 0.0 mm
22:35 12.3 °C 10.7 °C 1021.9 hPa Calm   1.6 km/h 90 % 0.0 mm
22:38 13.4 °C 11.4 °C 1021.9 hPa WSW 9.3 km/h 9.3 km/h 88 % 0.0 mm
22:43 13.4 °C 11.4 °C 1021.9 hPa WSW 5.0 km/h 5.0 km/h 88 % 0.0 mm
22:45 12.2 °C 10.6 °C 1021.9 hPa Calm   3.2 km/h 90 % 0.0 mm
22:48 13.4 °C 11.4 °C 1021.9 hPa WSW 5.6 km/h 5.6 km/h 88 % 0.0 mm
22:53 13.4 °C 11.4 °C 1021.9 hPa West 1.9 km/h   88 % 0.0 mm
22:55 12.2 °C 10.6 °C 1021.9 hPa Calm     90 % 0.0 mm
22:58 13.3 °C 11.3 °C 1021.9 hPa WSW 2.6 km/h 2.6 km/h 88 % 0.0 mm
23:05 12.2 °C 10.8 °C 1021.9 hPa Calm   1.6 km/h 91 % 0.0 mm
23:08 13.3 °C 11.3 °C 1021.9 hPa WSW 9.3 km/h 9.3 km/h 88 % 0.0 mm
23:13 13.2 °C 11.3 °C 1021.9 hPa WSW 7.4 km/h 7.4 km/h 88 % 0.0 mm
23:15 12.3 °C 10.9 °C 1021.9 hPa Calm   1.6 km/h 91 % 0.0 mm
23:23 13.2 °C 11.4 °C 1021.9 hPa West 5.6 km/h 5.6 km/h 89 % 0.0 mm
23:25 12.3 °C 10.9 °C 1021.9 hPa Calm     91 % 0.0 mm
23:28 13.1 °C 11.3 °C 1021.9 hPa WSW 1.9 km/h 1.9 km/h 89 % 0.0 mm
23:33 13.0 °C 11.2 °C 1021.9 hPa WSW 1.9 km/h 1.9 km/h 89 % 0.0 mm
23:35 12.3 °C 10.9 °C 1021.9 hPa Calm     91 % 0.0 mm
23:38 13.0 °C 11.2 °C 1021.9 hPa Calm     89 % 0.0 mm
23:43 12.9 °C 11.1 °C 1021.9 hPa SW 1.9 km/h 1.9 km/h 89 % 0.0 mm
23:45 12.3 °C 10.9 °C 1021.9 hPa Calm     91 % 0.0 mm
23:48 12.8 °C 11.1 °C 1021.9 hPa SW 2.3 km/h   89 % 0.0 mm
23:55 12.4 °C 10.9 °C 1021.9 hPa NE 1.6 km/h 3.2 km/h 91 % 0.0 mm
23:58 12.7 °C 10.9 °C 1021.9 hPa Calm     89 % 0.0 mm
Meteo Sesrovires
Elogis d' Weather Underground - 3.5 mb

Guio original per  Jim McMurry - jmcmurry@mwt.net Adaptat per a la plantilla per  Wim van der Kuil - Leuven-Template.eu

Trobareu la nostra informacio del temps tambe a:

Weather Underground

AWEKAS